Time;durP1;ratioP1;P1;durP2;ratioP2;P2;SDS_P1;SDS_P2;PMS_P1;PMS_P2;Temp;Humidity;BMP_temperature;BMP_pressure;BME280_temperature;BME280_humidity;BME280_pressure;Samples;Min_cycle;Max_cycle;Signal;HPM_P1;HPM_P2
2023/08/06 00:01:06;;;;;;;18.27;11.15;;;;;;;;;;5057837;28;20035;-69
2023/08/06 00:03:32;;;;;;;21.63;12.10;;;;;;;;;;5041419;28;20045;-69
2023/08/06 00:05:58;;;;;;;19.90;12.27;;;;;;;;;;5074279;28;20053;-69
2023/08/06 00:08:24;;;;;;;24.95;12.45;;;;;;;;;;5074737;28;20044;-69
2023/08/06 00:10:50;;;;;;;22.63;12.57;;;;;;;;;;5074269;28;20040;-69
2023/08/06 00:13:16;;;;;;;22.02;12.68;;;;;;;;;;5074440;28;20036;-69
2023/08/06 00:15:42;;;;;;;28.98;14.95;;;;;;;;;;5074352;28;20047;-68
2023/08/06 00:18:08;;;;;;;25.88;14.55;;;;;;;;;;5073889;28;20151;-69
2023/08/06 00:20:34;;;;;;;29.13;13.68;;;;;;;;;;5057486;28;20478;-69
2023/08/06 00:23:00;;;;;;;23.90;13.25;;;;;;;;;;5074107;28;20181;-69
2023/08/06 00:25:27;;;;;;;23.77;13.95;;;;;;;;;;5074033;28;20052;-68
2023/08/06 00:27:53;;;;;;;25.60;14.43;;;;;;;;;;5073868;28;20575;-68
2023/08/06 00:30:19;;;;;;;34.03;15.88;;;;;;;;;;5073502;28;20044;-69
2023/08/06 00:32:45;;;;;;;25.55;14.63;;;;;;;;;;5053832;28;20478;-69
2023/08/06 00:35:13;;;;;;;27.90;15.27;;;;;;;;;;5037412;28;20048;-68
2023/08/06 00:37:39;;;;;;;28.98;15.60;;;;;;;;;;5037112;28;20114;-69
2023/08/06 00:40:06;;;;;;;30.80;15.00;;;14.70;99.90;;;;;;5054129;28;20395;-69
2023/08/06 00:42:32;;;;;;;27.17;15.38;;;;;;;;;;5071381;28;20040;-69
2023/08/06 00:44:59;;;;;;;25.08;14.98;;;;;;;;;;5073140;28;20161;-68
2023/08/06 00:47:25;;;;;;;28.65;15.30;;;;;;;;;;5073728;28;20037;-69
2023/08/06 00:49:51;;;;;;;26.05;14.65;;;;;;;;;;5073715;28;20041;-69
2023/08/06 00:52:17;;;;;;;25.63;14.68;;;;;;;;;;5073761;28;20041;-69
2023/08/06 00:54:43;;;;;;;27.98;15.57;;;;;;;;;;5074838;28;20044;-69
2023/08/06 00:57:10;;;;;;;25.75;15.13;;;;;;;;;;5073417;28;20087;-69
2023/08/06 00:59:36;;;;;;;27.85;14.35;;;;;;;;;;5057131;28;20063;-68
2023/08/06 01:02:02;;;;;;;23.60;14.70;;;;;;;;;;5056184;28;20052;-69
2023/08/06 01:04:28;;;;;;;27.20;14.52;;;;;;;;;;5056748;28;20138;-69
2023/08/06 01:07:03;;;;;;;25.23;14.55;;;14.80;99.90;;;;;;5056497;28;20036;-69
2023/08/06 01:09:44;;;;;;;28.15;15.27;;;;;;;;;;5073522;28;20044;-69
2023/08/06 01:12:29;;;;;;;28.13;15.40;;;14.90;99.90;;;;;;5073050;28;20083;-69
2023/08/06 01:15:05;;;;;;;28.30;14.07;;;;;;;;;;5073173;28;20490;-69
2023/08/06 01:17:31;;;;;;;23.35;14.75;;;;;;;;;;5072756;28;20040;-69
2023/08/06 01:19:57;;;;;;;25.52;13.82;;;;;;;;;;5072688;28;20123;-69
2023/08/06 01:22:23;;;;;;;30.73;15.02;;;;;;;;;;5072619;28;20136;-70
2023/08/06 01:24:50;;;;;;;31.33;15.48;;;14.80;99.90;;;;;;5056479;28;20044;-68
2023/08/06 01:27:44;;;;;;;27.25;14.95;;;14.80;99.90;;;;;;5073079;28;20036;-68
2023/08/06 01:30:10;;;;;;;26.60;14.25;;;;;;;;;;5072213;28;20043;-69
2023/08/06 01:32:42;;;;;;;27.25;15.65;;;14.60;99.90;;;;;;5072362;28;20039;-69
2023/08/06 01:35:09;;;;;;;27.55;14.75;;;14.60;99.90;;;;;;5072510;28;20083;-69
2023/08/06 01:37:35;;;;;;;31.88;15.48;;;;;;;;;;5072447;28;20067;-69
2023/08/06 01:40:01;;;;;;;28.75;15.15;;;;;;;;;;5071943;28;20094;-69
2023/08/06 01:42:28;;;;;;;29.42;15.60;;;;;;;;;;5072798;28;20045;-69
2023/08/06 01:44:54;;;;;;;31.50;15.88;;;;;;;;;;5071781;28;20060;-69
2023/08/06 01:47:20;;;;;;;29.60;15.77;;;;;;;;;;5072164;28;20398;-69
2023/08/06 01:49:46;;;;;;;25.27;14.93;;;;;;;;;;5072212;28;20094;-69
2023/08/06 01:52:12;;;;;;;29.95;15.50;;;;;;;;;;5072508;28;20040;-69
2023/08/06 01:54:38;;;;;;;28.75;16.38;;;;;;;;;;5072222;28;20596;-69
2023/08/06 01:57:04;;;;;;;26.08;15.57;;;15.00;99.90;;;;;;5072576;28;20044;-70
2023/08/06 01:59:30;;;;;;;24.90;15.15;;;;;;;;;;5055972;28;20044;-69
2023/08/06 02:01:56;;;;;;;28.58;16.08;;;;;;;;;;5072195;28;20086;-69
2023/08/06 02:04:22;;;;;;;28.75;15.75;;;;;;;;;;5055400;28;20044;-69
2023/08/06 02:06:48;;;;;;;27.80;15.85;;;;;;;;;;5072195;28;20055;-69
2023/08/06 02:09:14;;;;;;;25.40;15.60;;;;;;;;;;5072084;28;20090;-69
2023/08/06 02:11:40;;;;;;;25.25;15.57;;;;;;;;;;5038969;28;20037;-69
2023/08/06 02:14:06;;;;;;;30.48;16.15;;;;;;;;;;5071774;28;20078;-69
2023/08/06 02:16:32;;;;;;;35.72;15.77;;;;;;;;;;5072046;28;20040;-69
2023/08/06 02:18:59;;;;;;;29.48;16.40;;;;;;;;;;5071625;28;20045;-68
2023/08/06 02:21:25;;;;;;;30.15;15.73;;;;;;;;;;5055257;28;20045;-69
2023/08/06 02:23:51;;;;;;;29.55;16.45;;;;;;;;;;5055281;28;20113;-69
2023/08/06 02:26:17;;;;;;;28.90;15.70;;;;;;;;;;5071117;28;20052;-69
2023/08/06 02:28:43;;;;;;;30.02;16.80;;;;;;;;;;5071508;28;20044;-69
2023/08/06 02:31:09;;;;;;;29.25;16.52;;;;;;;;;;5071473;28;20442;-69
2023/08/06 02:33:35;;;;;;;25.95;14.85;;;;;;;;;;5055061;28;20049;-69
2023/08/06 02:36:06;;;;;;;27.17;15.55;;;;;;;;;;5071330;28;20101;-69
2023/08/06 02:38:32;;;;;;;26.10;15.75;;;;;;;;;;5071625;28;20036;-69
2023/08/06 02:40:58;;;;;;;25.33;14.48;;;;;;;;;;5054501;28;20134;-68
2023/08/06 02:43:24;;;;;;;31.65;15.80;;;;;;;;;;5071497;28;20435;-69
2023/08/06 02:45:50;;;;;;;28.50;15.05;;;;;;;;;;5071297;28;20060;-68
2023/08/06 02:48:18;;;;;;;28.25;14.95;;;;;;;;;;5055277;28;20390;-69
2023/08/06 02:50:44;;;;;;;32.17;15.27;;;;;;;;;;5071370;28;20127;-69
2023/08/06 02:53:10;;;;;;;34.80;15.35;;;;;;;;;;5038656;28;20036;-69
2023/08/06 02:55:36;;;;;;;29.85;14.18;;;;;;;;;;5071340;28;20036;-69
2023/08/06 02:58:03;;;;;;;33.28;16.23;;;;;;;;;;5070235;28;20051;-69
2023/08/06 03:00:29;;;;;;;23.98;14.38;;;;;;;;;;5071526;28;20141;-69
2023/08/06 03:02:55;;;;;;;26.65;14.18;;;;;;;;;;5055077;28;20044;-69
2023/08/06 03:05:21;;;;;;;23.80;14.80;;;;;;;;;;5054658;28;20579;-69
2023/08/06 03:07:47;;;;;;;26.83;14.85;;;;;;;;;;5071406;28;20033;-68
2023/08/06 03:10:13;;;;;;;23.95;14.10;;;;;;;;;;5071488;28;20043;-69
2023/08/06 03:12:39;;;;;;;25.55;13.93;;;;;;;;;;5054386;28;20409;-69
2023/08/06 03:15:05;;;;;;;27.98;15.70;;;14.70;99.90;;;;;;5071380;28;20106;-69
2023/08/06 03:17:31;;;;;;;31.25;15.75;;;;;;;;;;5071193;28;20041;-69
2023/08/06 03:19:58;;;;;;;32.70;14.93;;;;;;;;;;5071438;28;20500;-69
2023/08/06 03:22:24;;;;;;;28.17;14.38;;;;;;;;;;5052940;28;20049;-69
2023/08/06 03:24:52;;;;;;;25.45;14.73;;;14.70;99.90;;;;;;5051176;28;20037;-69
2023/08/06 03:27:18;;;;;;;25.15;13.98;;;;;;;;;;5060188;28;20089;-69
2023/08/06 03:29:44;;;;;;;28.02;15.27;;;15.70;99.90;;;;;;5060475;28;20037;-69
2023/08/06 03:32:10;;;;;;;25.27;15.13;;;;;;;;;;5066844;28;20060;-69
2023/08/06 03:34:36;;;;;;;29.80;15.55;;;;;;;;;;5054578;28;20044;-69
2023/08/06 03:37:02;;;;;;;28.08;15.35;;;;;;;;;;5070625;28;20040;-68
2023/08/06 03:39:28;;;;;;;31.80;16.17;;;;;;;;;;5054526;28;20490;-69
2023/08/06 03:41:54;;;;;;;30.15;15.32;;;;;;;;;;5071030;28;20037;-69
2023/08/06 03:44:20;;;;;;;30.45;14.82;;;;;;;;;;5070791;28;20051;-69
2023/08/06 03:46:46;;;;;;;29.35;15.73;;;;;;;;;;5054169;28;20490;-69
2023/08/06 03:49:12;;;;;;;30.08;14.93;;;;;;;;;;5071221;28;20072;-69
2023/08/06 03:51:38;;;;;;;33.45;17.20;;;;;;;;;;5054214;28;20040;-69
2023/08/06 03:54:05;;;;;;;33.58;16.35;;;;;;;;;;5034416;28;20467;-69
2023/08/06 03:56:31;;;;;;;27.27;15.25;;;;;;;;;;5064958;28;20049;-69
2023/08/06 03:58:57;;;;;;;35.22;15.75;;;;;;;;;;5070589;28;20172;-69
2023/08/06 04:01:23;;;;;;;27.65;16.27;;;;;;;;;;5070579;28;20069;-69
2023/08/06 04:03:49;;;;;;;39.45;17.83;;;;;;;;;;5071958;28;20044;-69
2023/08/06 04:06:15;;;;;;;31.05;16.45;;;;;;;;;;5070780;28;20032;-68
2023/08/06 04:08:41;;;;;;;30.88;17.27;;;;;;;;;;5071735;28;20371;-69
2023/08/06 04:11:08;;;;;;;31.50;16.15;;;;;;;;;;5057178;28;20094;-69
2023/08/06 04:13:34;;;;;;;27.45;17.05;;;;;;;;;;5040271;28;20036;-68
2023/08/06 04:16:03;;;;;;;32.17;16.90;;;;;;;;;;5055657;28;20044;-69
2023/08/06 04:18:29;;;;;;;32.05;17.00;;;;;;;;;;5073152;28;20089;-69
2023/08/06 04:20:57;;;;;;;35.53;16.95;;;;;;;;;;5057604;28;20040;-69
2023/08/06 04:23:23;;;;;;;34.10;17.10;;;;;;;;;;5074060;28;20041;-68
2023/08/06 04:25:49;;;;;;;30.75;17.35;;;;;;;;;;5074007;28;20558;-69
2023/08/06 04:28:15;;;;;;;33.55;16.65;;;;;;;;;;5057310;28;20059;-68
2023/08/06 04:30:41;;;;;;;35.83;16.15;;;;;;;;;;5073763;28;20123;-68
2023/08/06 04:33:07;;;;;;;28.30;17.30;;;;;;;;;;5074020;28;20079;-68
2023/08/06 04:35:34;;;;;;;31.05;16.17;;;;;;;;;;5073794;28;20041;-69
2023/08/06 04:38:00;;;;;;;31.13;17.25;;;;;;;;;;5073734;28;20149;-69
2023/08/06 04:40:26;;;;;;;34.28;17.70;;;;;;;;;;5057385;28;20052;-68
2023/08/06 04:42:52;;;;;;;32.10;16.88;;;;;;;;;;5040332;28;20561;-69
2023/08/06 04:45:18;;;;;;;32.92;17.02;;;;;;;;;;5073389;28;20131;-68
2023/08/06 04:47:44;;;;;;;33.45;16.88;;;;;;;;;;5070029;28;20154;-69
2023/08/06 04:50:10;;;;;;;37.28;17.75;;;;;;;;;;5053736;28;20044;-68
2023/08/06 04:52:37;;;;;;;30.40;16.85;;;;;;;;;;5069069;28;20401;-69
2023/08/06 04:55:05;;;;;;;33.75;16.58;;;;;;;;;;5073493;28;20099;-69
2023/08/06 04:57:32;;;;;;;33.35;17.65;;;;;;;;;;5073592;28;20075;-69
2023/08/06 04:59:58;;;;;;;36.45;18.23;;;;;;;;;;5056870;28;20079;-69
2023/08/06 05:02:24;;;;;;;32.10;17.23;;;;;;;;;;5073781;28;20142;-69
2023/08/06 05:04:50;;;;;;;30.33;16.30;;;;;;;;;;5073147;28;20069;-69
2023/08/06 05:07:16;;;;;;;30.83;17.92;;;;;;;;;;5056515;28;20123;-69
2023/08/06 05:09:42;;;;;;;35.72;18.02;;;;;;;;;;5056396;28;20036;-69
2023/08/06 05:12:08;;;;;;;34.15;17.25;;;;;;;;;;5073234;28;20044;-68
2023/08/06 05:14:34;;;;;;;32.30;17.10;;;;;;;;;;5073028;28;20119;-69
2023/08/06 05:17:02;;;;;;;33.50;16.90;;;;;;;;;;5056725;28;20440;-69
2023/08/06 05:19:28;;;;;;;30.77;17.35;;;;;;;;;;5073274;28;20044;-69
2023/08/06 05:21:53;;;;;;;31.05;18.33;;;15.80;99.90;;;;;;5055614;28;20076;-68
2023/08/06 05:24:19;;;;;;;32.90;17.95;;;;;;;;;;5055650;28;20068;-69
2023/08/06 05:26:47;;;;;;;32.50;17.58;;;;;;;;;;5073218;28;20091;-69
2023/08/06 05:29:13;;;;;;;32.85;18.40;;;;;;;;;;5072852;28;20080;-69
2023/08/06 05:31:39;;;;;;;30.13;18.13;;;;;;;;;;5072321;28;20043;-69
2023/08/06 05:34:05;;;;;;;35.92;18.45;;;;;;;;;;5056073;28;20043;-68
2023/08/06 05:36:31;;;;;;;31.13;18.02;;;;;;;;;;5073033;28;20051;-68
2023/08/06 05:38:57;;;;;;;36.92;19.65;;;;;;;;;;5066216;28;20040;-68
2023/08/06 05:41:24;;;;;;;31.42;17.60;;;;;;;;;;5069015;28;20041;-69
2023/08/06 05:43:50;;;;;;;33.17;17.63;;;;;;;;;;5071941;28;20045;-69
2023/08/06 05:46:16;;;;;;;30.92;17.25;;;;;;;;;;5056024;28;20524;-68
2023/08/06 05:48:42;;;;;;;32.05;17.63;;;;;;;;;;5056038;28;20044;-68
2023/08/06 05:51:08;;;;;;;36.42;18.63;;;;;;;;;;5039662;28;20045;-69
2023/08/06 05:53:34;;;;;;;32.55;17.38;;;;;;;;;;5071967;28;20036;-69
2023/08/06 05:56:00;;;;;;;26.27;15.68;;;;;;;;;;5072479;28;20048;-69
2023/08/06 05:58:29;;;;;;;36.60;18.13;;;;;;;;;;5072301;28;20040;-69
2023/08/06 06:00:55;;;;;;;28.48;16.98;;;;;;;;;;5072146;28;20469;-68
2023/08/06 06:03:21;;;;;;;30.17;16.80;;;;;;;;;;5071958;28;20040;-69
2023/08/06 06:05:47;;;;;;;32.70;17.50;;;;;;;;;;5071747;28;20176;-69
2023/08/06 06:08:13;;;;;;;33.45;19.27;;;;;;;;;;5072002;28;20093;-69
2023/08/06 06:10:39;;;;;;;31.75;17.70;;;;;;;;;;5072315;28;20390;-69
2023/08/06 06:13:05;;;;;;;34.05;18.02;;;;;;;;;;5055631;28;20044;-68
2023/08/06 06:15:31;;;;;;;34.45;18.10;;;;;;;;;;5071862;28;20090;-69
2023/08/06 06:17:57;;;;;;;37.90;17.80;;;;;;;;;;5072378;28;20397;-69
2023/08/06 06:20:23;;;;;;;34.25;17.60;;;;;;;;;;5055071;28;20051;-68
2023/08/06 06:22:49;;;;;;;31.02;17.50;;;;;;;;;;5071891;28;20482;-69
2023/08/06 06:25:16;;;;;;;31.17;18.05;;;;;;;;;;5071980;28;20090;-69
2023/08/06 06:27:42;;;;;;;35.53;17.75;;;;;;;;;;5071877;28;20047;-68
2023/08/06 06:30:08;;;;;;;35.35;18.50;;;16.10;99.90;;;;;;5071626;28;20519;-69
2023/08/06 06:32:34;;;;;;;33.67;17.55;;;;;;;;;;5071023;28;20561;-68
2023/08/06 06:35:00;;;;;;;26.58;16.10;;;;;;;;;;5071705;28;20127;-69
2023/08/06 06:37:27;;;;;;;30.60;17.50;;;;;;;;;;5071570;28;20053;-69
2023/08/06 06:39:53;;;;;;;35.58;18.20;;;;;;;;;;5054951;28;20102;-69
2023/08/06 06:42:19;;;;;;;28.15;16.77;;;;;;;;;;5071665;28;20155;-68
2023/08/06 06:44:45;;;;;;;29.10;16.65;;;;;;;;;;5071502;28;20049;-68
2023/08/06 06:47:11;;;;;;;42.50;17.98;;;;;;;;;;5071565;28;20093;-68
2023/08/06 06:49:37;;;;;;;27.35;15.95;;;;;;;;;;5071287;28;20048;-69
2023/08/06 06:52:03;;;;;;;33.28;16.73;;;;;;;;;;5053754;28;20119;-69
2023/08/06 06:54:29;;;;;;;26.48;15.70;;;;;;;;;;5054784;28;20448;-69
2023/08/06 06:56:56;;;;;;;25.95;14.52;;;;;;;;;;5071098;28;20051;-70
2023/08/06 06:59:22;;;;;;;29.02;16.00;;;;;;;;;;5054922;28;20076;-69
2023/08/06 07:01:48;;;;;;;23.20;14.25;;;;;;;;;;5071432;28;20053;-69
2023/08/06 07:04:14;;;;;;;23.23;14.07;;;;;;;;;;5071378;28;20036;-69
2023/08/06 07:06:40;;;;;;;23.60;15.00;;;;;;;;;;5071224;28;20037;-69
2023/08/06 07:09:06;;;;;;;24.65;14.32;;;;;;;;;;5054277;28;20066;-69
2023/08/06 07:11:32;;;;;;;35.53;16.23;;;;;;;;;;5070808;28;20051;-69
2023/08/06 07:13:58;;;;;;;26.50;14.45;;;;;;;;;;5054478;28;20036;-69
2023/08/06 07:16:25;;;;;;;21.50;13.77;;;16.10;99.90;;;;;;5071143;28;20068;-69
2023/08/06 07:18:52;;;;;;;21.90;14.20;;;;;;;;;;5071031;28;20045;-69
2023/08/06 07:21:18;;;;;;;24.10;14.27;;;;;;;;;;5071113;28;20448;-69
2023/08/06 07:23:45;;;;;;;23.08;13.93;;;;;;;;;;5070563;28;20044;-69
2023/08/06 07:26:11;;;;;;;24.30;12.93;;;;;;;;;;5054552;28;20041;-69
2023/08/06 07:28:37;;;;;;;22.00;12.52;;;;;;;;;;5025333;28;20081;-69
2023/08/06 07:31:03;;;;;;;27.13;13.52;;;16.40;99.90;;;;;;5048042;28;20186;-69
2023/08/06 07:33:29;;;;;;;24.35;12.40;;;;;;;;;;5070661;28;20036;-69
2023/08/06 07:35:56;;;;;;;22.98;12.32;;;;;;;;;;5070679;28;20037;-70
2023/08/06 07:38:22;;;;;;;21.98;12.25;;;;;;;;;;5070678;28;20486;-69
2023/08/06 07:40:48;;;;;;;20.58;11.60;;;;;;;;;;5054340;28;20040;-69
2023/08/06 07:43:14;;;;;;;23.85;11.75;;;;;;;;;;5071077;28;20036;-69
2023/08/06 07:45:40;;;;;;;22.02;11.52;;;;;;;;;;5057973;28;20082;-69
2023/08/06 07:48:06;;;;;;;15.80;10.82;;;;;;;;;;5038910;28;20055;-69
2023/08/06 07:50:32;;;;;;;20.13;9.80;;;;;;;;;;5074905;28;20044;-69
2023/08/06 07:52:58;;;;;;;18.58;9.85;;;;;;;;;;5057694;28;20036;-69
2023/08/06 07:55:24;;;;;;;19.73;9.88;;;;;;;;;;5074675;28;20511;-69
2023/08/06 07:57:50;;;;;;;17.27;9.52;;;;;;;;;;5041086;28;20102;-70
2023/08/06 08:00:17;;;;;;;18.27;9.88;;;;;;;;;;5074828;28;20429;-69
2023/08/06 08:02:43;;;;;;;15.60;9.45;;;;;;;;;;5073548;28;20482;-69
2023/08/06 08:05:09;;;;;;;14.27;9.20;;;;;;;;;;5073929;28;20044;-69
2023/08/06 08:07:35;;;;;;;17.30;8.80;;;;;;;;;;5057483;28;20513;-76
2023/08/06 08:10:05;;;;;;;15.50;8.68;;;;;;;;;;5059553;28;20512;-70
2023/08/06 08:12:31;;;;;;;15.95;8.02;;;;;;;;;;5058173;28;20048;-70
2023/08/06 08:14:57;;;;;;;12.80;7.82;;;;;;;;;;5074418;28;20041;-69
2023/08/06 08:17:23;;;;;;;13.05;7.93;;;16.60;99.90;;;;;;5074052;28;20048;-70
2023/08/06 08:19:49;;;;;;;17.33;8.30;;;;;;;;;;5073646;28;20040;-69
2023/08/06 08:22:15;;;;;;;14.73;8.00;;;;;;;;;;5057192;28;20119;-69
2023/08/06 08:24:41;;;;;;;13.45;7.10;;;;;;;;;;5056801;28;20482;-70
2023/08/06 08:27:06;;;;;;;11.07;6.70;;;17.20;99.90;;;;;;5073581;28;20124;-70
2023/08/06 08:29:32;;;;;;;14.20;7.32;;;16.80;99.90;;;;;;5074767;28;20457;-70
2023/08/06 08:31:58;;;;;;;11.98;6.68;;;;;;;;;;5073880;28;20111;-70
2023/08/06 08:34:24;;;;;;;12.85;6.53;;;;;;;;;;5073547;28;20085;-70
2023/08/06 08:36:50;;;;;;;13.15;7.35;;;;;;;;;;5072892;28;20045;-70
2023/08/06 08:39:17;;;;;;;11.70;6.78;;;;;;;;;;5057059;28;20040;-70
2023/08/06 08:41:42;;;;;;;8.60;5.10;;;17.10;99.90;;;;;;5056923;28;20174;-70
2023/08/06 08:44:12;;;;;;;9.25;5.53;;;;;;;;;;5073355;28;20136;-69
2023/08/06 08:46:41;;;;;;;10.60;5.05;;;18.20;99.90;;;;;;5059943;28;20047;-70
2023/08/06 08:49:07;;;;;;;8.32;5.60;;;;;;;;;;5073765;28;20041;-70
2023/08/06 08:51:36;;;;;;;7.88;5.40;;;;;;;;;;5073034;28;20509;-70
2023/08/06 08:54:03;;;;;;;17.25;5.30;;;18.10;99.90;;;;;;5069796;28;20040;-71
2023/08/06 08:56:29;;;;;;;10.98;4.97;;;;;;;;;;5102631;28;20064;-71
2023/08/06 08:58:55;;;;;;;10.15;5.13;;;;;;;;;;5095269;28;20494;-71
2023/08/06 09:01:22;;;;;;;6.43;4.22;;;18.20;99.90;;;;;;5073370;28;20098;-71
2023/08/06 09:03:48;;;;;;;8.77;4.55;;;;;;;;;;5073254;28;20043;-71
2023/08/06 09:06:16;;;;;;;8.23;4.80;;;18.40;99.90;;;;;;5072116;28;20040;-71
2023/08/06 09:08:47;;;;;;;9.60;4.57;;;;;;;;;;5071977;28;20047;-71
2023/08/06 09:11:14;;;;;;;6.75;4.85;;;;;;;;;;5072590;28;20054;-71
2023/08/06 09:13:40;;;;;;;9.25;4.47;;;;;;;;;;5054915;28;20086;-71
2023/08/06 09:16:06;;;;;;;9.20;4.90;;;;;;;;;;5072337;28;20051;-71
2023/08/06 09:18:32;;;;;;;8.13;4.65;;;;;;;;;;5071148;28;20044;-71
2023/08/06 09:20:58;;;;;;;8.25;4.75;;;;;;;;;;5059915;28;20091;-70
2023/08/06 09:23:30;;;;;;;8.25;4.47;;;18.70;99.90;;;;;;5065327;28;20421;-71
2023/08/06 09:25:56;;;;;;;6.57;4.43;;;;;;;;;;5072586;28;20555;-71
2023/08/06 09:28:24;;;;;;;7.28;4.57;;;;;;;;;;5072509;28;20275;-71
2023/08/06 09:30:50;;;;;;;6.78;4.50;;;18.70;99.90;;;;;;5072532;28;20052;-71
2023/08/06 09:33:19;;;;;;;9.80;3.97;;;18.90;99.90;;;;;;5072705;28;20037;-71
2023/08/06 09:35:48;;;;;;;7.97;4.90;;;19.20;99.90;;;;;;5039424;28;20048;-71
2023/08/06 09:38:14;;;;;;;8.50;4.60;;;;;;;;;;5072373;28;20101;-71
2023/08/06 09:40:40;;;;;;;8.35;4.47;;;19.70;99.90;;;;;;5072187;28;20076;-71
2023/08/06 09:43:07;;;;;;;8.00;4.40;;;;;;;;;;5039212;28;20129;-71
2023/08/06 09:45:34;;;;;;;14.25;4.70;;;19.20;99.90;;;;;;5072010;28;20040;-71
2023/08/06 09:48:03;;;;;;;7.40;4.65;;;18.10;99.90;;;;;;5052708;28;20146;-71
2023/08/06 09:50:33;;;;;;;11.07;5.60;;;19.10;99.90;;;;;;5052580;28;20033;-71
2023/08/06 09:53:00;;;;;;;10.07;4.95;;;19.60;99.90;;;;;;5072066;28;20119;-70
2023/08/06 09:55:26;;;;;;;6.90;4.90;;;19.60;99.90;;;;;;5072566;28;20482;-71
2023/08/06 09:57:53;;;;;;;18.05;5.70;;;19.20;99.90;;;;;;5072210;28;20048;-71
2023/08/06 10:00:19;;;;;;;8.73;4.63;;;18.00;99.90;;;;;;5074291;28;20099;-71
2023/08/06 10:02:46;;;;;;;12.43;4.80;;;18.80;99.90;;;;;;5055176;28;20123;-71
2023/08/06 10:05:12;;;;;;;7.32;4.57;;;18.00;99.90;;;;;;5052094;28;20076;-70
2023/08/06 10:07:41;;;;;;;9.95;4.32;;;;;;;;;;5071330;28;20094;-71
2023/08/06 10:10:07;;;;;;;11.07;4.60;;;;;;;;;;5071683;28;20485;-71
2023/08/06 10:12:44;;;;;;;7.28;4.63;;;18.60;99.90;;;;;;5072104;28;20029;-71
2023/08/06 10:15:12;;;;;;;10.23;4.82;;;18.30;99.90;;;;;;5071336;28;20044;-71
2023/08/06 10:17:39;;;;;;;15.23;5.07;;;19.60;99.90;;;;;;5071755;28;20114;-71
2023/08/06 10:20:07;;;;;;;9.77;5.10;;;18.60;99.90;;;;;;5071751;28;20131;-71
2023/08/06 10:22:34;;;;;;;11.90;5.80;;;18.70;99.90;;;;;;5071780;28;20036;-71
2023/08/06 10:25:07;;;;;;;10.48;5.22;;;;;;;;;;5071629;28;20181;-71
2023/08/06 10:27:53;;;;;;;12.23;5.20;;;18.70;99.90;;;;;;5071467;28;20470;-70
2023/08/06 10:30:26;;;;;;;11.07;5.00;;;18.90;99.90;;;;;;5071875;28;20040;-71
2023/08/06 10:32:54;;;;;;;9.93;5.20;;;18.80;99.90;;;;;;5071490;28;20041;-70
2023/08/06 10:35:38;;;;;;;11.85;5.30;;;19.00;99.90;;;;;;5071306;28;20071;-70
2023/08/06 10:38:04;;;;;;;12.82;5.18;;;18.80;99.90;;;;;;5070796;28;20127;-70
2023/08/06 10:40:30;;;;;;;9.43;4.85;;;;;;;;;;5070736;28;20541;-70
2023/08/06 10:42:59;;;;;;;12.15;5.30;;;18.30;99.90;;;;;;5071632;28;20052;-70
2023/08/06 10:45:28;;;;;;;8.65;4.93;;;;;;;;;;5054580;28;20045;-71
2023/08/06 10:47:58;;;;;;;13.35;5.55;;;;;;;;;;5071506;28;20044;-71
2023/08/06 10:50:24;;;;;;;10.18;5.53;;;18.10;99.90;;;;;;5071622;28;20036;-70
2023/08/06 10:52:51;;;;;;;14.30;5.85;;;;;;;;;;5047426;28;20073;-70
2023/08/06 10:55:27;;;;;;;9.20;5.40;;;18.80;99.90;;;;;;5066125;28;20551;-70
2023/08/06 10:57:54;;;;;;;10.63;5.82;;;19.50;99.90;;;;;;5071473;28;20033;-70
2023/08/06 11:00:22;;;;;;;13.90;6.18;;;;;;;;;;5071325;28;20081;-70
2023/08/06 11:02:49;;;;;;;12.48;5.97;;;17.80;99.90;;;;;;5054541;28;20040;-70
2023/08/06 11:05:15;;;;;;;13.70;7.00;;;;;;;;;;5071137;28;20060;-71
2023/08/06 11:07:42;;;;;;;13.60;6.65;;;;;;;;;;5071370;28;20044;-70
2023/08/06 11:10:13;;;;;;;12.20;6.60;;;18.70;99.90;;;;;;5071493;28;20041;-70
2023/08/06 11:12:39;;;;;;;9.45;6.45;;;18.90;99.90;;;;;;5054648;28;20040;-74
2023/08/06 11:15:06;;;;;;;11.63;6.40;;;;;;;;;;5071533;28;20394;-74
2023/08/06 11:17:33;;;;;;;9.88;6.72;;;19.00;99.90;;;;;;5071399;28;20401;-74
2023/08/06 11:20:00;;;;;;;10.95;7.13;;;18.70;99.90;;;;;;5057439;28;20464;-74
2023/08/06 11:22:27;;;;;;;11.88;7.05;;;;;;;;;;5075597;28;20401;-74
2023/08/06 11:24:54;;;;;;;15.50;6.63;;;;;;;;;;5057997;28;20119;-74
2023/08/06 11:27:20;;;;;;;15.38;7.60;;;;;;;;;;5075311;28;20136;-74
2023/08/06 11:29:46;;;;;;;12.15;7.45;;;;;;;;;;5057924;28;20093;-72
2023/08/06 11:32:12;;;;;;;12.02;7.07;;;;;;;;;;5058394;28;20086;-74
2023/08/06 11:34:39;;;;;;;10.98;6.50;;;;;;;;;;5074730;28;20080;-75
2023/08/06 11:37:05;;;;;;;13.50;6.22;;;;;;;;;;5075258;28;20075;-74
2023/08/06 11:39:35;;;;;;;11.15;5.68;;;19.10;99.90;;;;;;5074859;28;20052;-74
2023/08/06 11:42:03;;;;;;;10.52;6.32;;;18.50;99.90;;;;;;5074992;28;20040;-74
2023/08/06 11:44:36;;;;;;;11.10;6.25;;;19.00;99.90;;;;;;5057602;28;20110;-74
2023/08/06 11:47:05;;;;;;;12.13;5.72;;;18.10;99.90;;;;;;5075151;28;20076;-75
2023/08/06 11:49:44;;;;;;;12.80;6.68;;;;;;;;;;5074620;28;20040;-74
2023/08/06 11:52:23;;;;;;;16.58;6.70;;;18.10;99.90;;;;;;5074363;28;20041;-74
2023/08/06 11:55:08;;;;;;;10.32;6.25;;;19.20;99.90;;;;;;5073816;28;20052;-71
2023/08/06 11:57:39;;;;;;;10.45;6.07;;;;;;;;;;5074326;28;20041;-70
2023/08/06 12:00:06;;;;;;;9.03;5.87;;;;;;;;;;5057682;28;20037;-69
2023/08/06 12:02:37;;;;;;;10.13;6.03;;;18.50;99.90;;;;;;5074598;28;20337;-69
2023/08/06 12:05:25;;;;;;;9.85;6.30;;;19.30;99.90;;;;;;5049081;28;20056;-71
2023/08/06 12:07:53;;;;;;;12.80;6.55;;;19.30;99.90;;;;;;5072192;28;20028;-70
2023/08/06 12:10:20;;;;;;;17.25;7.22;;;18.60;99.90;;;;;;5073801;28;20047;-70
2023/08/06 12:12:46;;;;;;;17.60;7.15;;;;;;;;;;5074217;28;20150;-70
2023/08/06 12:15:14;;;;;;;18.00;6.93;;;19.40;99.90;;;;;;5073687;28;20047;-69
2023/08/06 12:17:39;;;;;;;11.50;6.97;;;18.00;99.90;;;;;;5074483;28;20058;-70
2023/08/06 12:20:07;;;;;;;11.30;7.05;;;18.80;99.90;;;;;;5073601;28;20472;-69
2023/08/06 12:22:37;;;;;;;15.57;7.07;;;19.20;99.90;;;;;;5057476;28;20072;-70
2023/08/06 12:25:08;;;;;;;12.05;6.40;;;18.70;99.90;;;;;;5057299;28;20037;-69
2023/08/06 12:27:35;;;;;;;12.90;6.40;;;;;;;;;;5073305;28;20103;-69
2023/08/06 12:30:00;;;;;;;13.85;6.38;;;19.80;99.90;;;;;;5056617;28;20386;-69
2023/08/06 12:32:26;;;;;;;10.18;6.00;;;;;;;;;;5073045;28;20040;-70
2023/08/06 12:34:52;;;;;;;13.23;6.47;;;18.30;99.90;;;;;;5073928;28;20044;-70
2023/08/06 12:37:18;;;;;;;9.60;6.20;;;;;;;;;;5073483;28;20083;-70
2023/08/06 12:39:44;;;;;;;10.70;6.70;;;;;;;;;;5040872;28;20037;-70
2023/08/06 12:42:10;;;;;;;10.45;6.35;;;19.80;99.90;;;;;;5073492;28;20336;-70
2023/08/06 12:44:36;;;;;;;14.48;6.10;;;;;;;;;;5073484;28;20059;-70
2023/08/06 12:47:02;;;;;;;12.80;6.22;;;18.00;99.90;;;;;;5073581;28;20038;-70
2023/08/06 12:49:29;;;;;;;15.00;6.70;;;19.70;99.90;;;;;;5073906;28;20068;-70
2023/08/06 12:51:56;;;;;;;11.05;6.45;;;19.20;99.90;;;;;;5073611;28;20044;-70
2023/08/06 12:54:23;;;;;;;9.05;6.25;;;20.00;99.90;;;;;;5047818;28;20060;-70
2023/08/06 12:56:50;;;;;;;12.90;7.28;;;18.00;99.90;;;;;;5064324;28;20076;-70
2023/08/06 12:59:16;;;;;;;14.05;7.50;;;18.70;99.90;;;;;;5072217;28;20524;-70
2023/08/06 13:01:43;;;;;;;11.05;5.50;;;19.90;99.90;;;;;;5073055;28;20045;-70
2023/08/06 13:04:09;;;;;;;12.35;7.43;;;;;;;;;;5073103;28;20052;-70
2023/08/06 13:06:36;;;;;;;13.75;7.03;;;;;;;;;;5073300;28;20098;-71
2023/08/06 13:09:09;;;;;;;12.95;7.10;;;19.60;99.90;;;;;;5056779;28;20377;-70
2023/08/06 13:11:36;;;;;;;13.60;6.85;;;19.00;99.90;;;;;;5048335;28;20091;-70
2023/08/06 13:14:12;;;;;;;10.15;6.82;;;19.80;99.90;;;;;;5060800;28;20459;-70
2023/08/06 13:16:40;;;;;;;10.98;5.95;;;20.30;99.90;;;;;;5073224;28;20364;-70
2023/08/06 13:19:06;;;;;;;10.93;5.70;;;19.20;99.90;;;;;;5073427;28;20036;-70
2023/08/06 13:21:33;;;;;;;13.00;6.00;;;19.70;99.90;;;;;;5056898;28;20080;-71
2023/08/06 13:24:00;;;;;;;15.32;5.90;;;20.20;99.90;;;;;;5072107;28;20516;-71
2023/08/06 13:26:27;;;;;;;11.75;6.40;;;20.50;99.90;;;;;;5072484;28;20040;-71
2023/08/06 13:28:53;;;;;;;12.73;6.28;;;;;;;;;;5073248;28;20036;-71
2023/08/06 13:31:19;;;;;;;12.48;6.32;;;;;;;;;;5052357;28;20040;-71
2023/08/06 13:33:47;;;;;;;11.65;6.00;;;;;;;;;;5073102;28;20489;-71
2023/08/06 13:36:12;;;;;;;11.57;6.68;;;19.10;99.90;;;;;;5055600;28;20142;-71
2023/08/06 13:38:38;;;;;;;10.73;6.57;;;;;;;;;;5056171;28;20127;-71
2023/08/06 13:41:05;;;;;;;10.50;5.60;;;18.30;99.90;;;;;;5055316;28;20099;-71
2023/08/06 13:43:31;;;;;;;10.32;5.65;;;;;;;;;;5072392;28;20494;-75
2023/08/06 13:45:57;;;;;;;13.48;6.05;;;;;;;;;;5071805;28;20056;-75
2023/08/06 13:48:23;;;;;;;8.27;5.63;;;19.50;99.90;;;;;;5072563;28;20036;-75
2023/08/06 13:50:49;;;;;;;11.10;5.43;;;;;;;;;;5039577;28;20045;-75